createdAt,value
2019-03-09T00:00:48.011Z,95133.34
2019-03-09T00:03:21.580Z,95128.47
2019-03-09T00:05:54.923Z,95136.61
2019-03-09T00:08:34.144Z,95140.30
2019-03-09T00:11:08.420Z,95133.82
2019-03-09T00:13:43.111Z,95125.33
2019-03-09T00:16:16.589Z,95124.87
2019-03-09T00:18:50.708Z,95118.62
2019-03-09T00:21:24.390Z,95110.79
2019-03-09T00:24:28.958Z,95112.25
2019-03-09T00:27:29.891Z,95109.43
2019-03-09T00:30:16.602Z,95105.03
2019-03-09T00:32:49.732Z,95103.14
2019-03-09T00:35:23.011Z,95106.17
2019-03-09T00:37:56.296Z,95108.86
2019-03-09T00:40:29.556Z,95104.23
2019-03-09T00:43:02.641Z,95109.17
2019-03-09T00:45:35.896Z,95114.95
2019-03-09T00:48:08.872Z,95110.52
2019-03-09T00:50:41.890Z,95107.94
2019-03-09T00:53:15.012Z,95105.44
2019-03-09T00:55:48.305Z,95108.30
2019-03-09T00:58:21.388Z,95107.30
2019-03-09T01:00:54.515Z,95110.95
2019-03-09T01:03:27.723Z,95108.74
2019-03-09T01:06:00.770Z,95111.53
2019-03-09T01:08:34.060Z,95109.39
2019-03-09T01:11:07.333Z,95110.22
2019-03-09T01:13:40.493Z,95110.33
2019-03-09T01:16:13.641Z,95108.14
2019-03-09T01:18:46.708Z,95103.74
2019-03-09T01:21:19.831Z,95101.18
2019-03-09T01:23:53.000Z,95106.56
2019-03-09T01:26:25.884Z,95106.27
2019-03-09T01:28:58.796Z,95110.68
2019-03-09T01:31:31.557Z,95109.72
2019-03-09T01:34:04.702Z,95111.80
2019-03-09T01:36:38.807Z,95107.53
2019-03-09T01:39:14.052Z,95115.70
2019-03-09T01:41:47.119Z,95113.59
2019-03-09T01:44:21.487Z,95112.91
2019-03-09T01:46:54.784Z,95115.89
2019-03-09T01:49:27.945Z,95118.84
2019-03-09T01:52:00.986Z,95118.89
2019-03-09T01:54:34.206Z,95118.00
2019-03-09T01:57:07.435Z,95123.05
2019-03-09T01:59:40.537Z,95113.33
2019-03-09T02:02:13.717Z,95116.75
2019-03-09T02:04:47.139Z,95112.85
2019-03-09T02:07:20.238Z,95108.30
2019-03-09T02:09:53.635Z,95121.77
2019-03-09T02:12:26.816Z,95117.73
2019-03-09T02:14:59.641Z,95129.84
2019-03-09T02:17:32.533Z,95134.70
2019-03-09T02:20:06.367Z,95134.38
2019-03-09T02:22:39.204Z,95140.15
2019-03-09T02:25:12.355Z,95136.48
2019-03-09T02:27:45.632Z,95134.06
2019-03-09T02:30:18.737Z,95134.89
2019-03-09T02:32:51.722Z,95137.75
2019-03-09T02:35:25.027Z,95141.22
2019-03-09T02:38:00.672Z,95137.55
2019-03-09T02:40:33.760Z,95138.73
2019-03-09T02:43:07.268Z,95140.24
2019-03-09T02:45:40.622Z,95144.47
2019-03-09T02:48:13.591Z,95151.09
2019-03-09T02:50:58.769Z,95151.19
2019-03-09T02:53:31.851Z,95151.02
2019-03-09T02:56:04.833Z,95151.97
2019-03-09T02:58:37.929Z,95156.75
2019-03-09T03:01:35.605Z,95160.06
2019-03-09T03:04:08.831Z,95162.95
2019-03-09T03:06:41.454Z,95163.34
2019-03-09T03:09:14.485Z,95164.28
2019-03-09T03:11:47.366Z,95168.31
2019-03-09T03:14:20.273Z,95177.98
2019-03-09T03:16:53.223Z,95173.27
2019-03-09T03:19:26.048Z,95177.27
2019-03-09T03:21:59.024Z,95177.30
2019-03-09T03:24:33.368Z,95181.79
2019-03-09T03:27:06.199Z,95183.28
2019-03-09T03:29:39.500Z,95174.91
2019-03-09T03:32:12.244Z,95174.98
2019-03-09T03:34:45.694Z,95175.44
2019-03-09T03:37:18.600Z,95176.05
2019-03-09T03:39:51.657Z,95183.71
2019-03-09T03:42:24.493Z,95183.55
2019-03-09T03:44:57.391Z,95189.11
2019-03-09T03:47:30.229Z,95188.45
2019-03-09T03:50:03.181Z,95184.48
2019-03-09T03:52:35.907Z,95191.79
2019-03-09T03:55:08.926Z,95193.47
2019-03-09T03:57:41.621Z,95198.65
2019-03-09T04:00:14.711Z,95201.11
2019-03-09T04:02:47.607Z,95204.98
2019-03-09T04:05:20.709Z,95207.73
2019-03-09T04:07:53.795Z,95211.06
2019-03-09T04:10:27.269Z,95215.02
2019-03-09T04:13:00.273Z,95209.28
2019-03-09T04:15:33.316Z,95208.17
2019-03-09T04:18:06.305Z,95220.23
2019-03-09T04:20:39.059Z,95221.16
2019-03-09T04:23:12.073Z,95224.88
2019-03-09T04:25:45.413Z,95222.59
2019-03-09T04:28:18.511Z,95224.97
2019-03-09T04:30:51.539Z,95221.09
2019-03-09T04:33:24.461Z,95225.86
2019-03-09T04:35:59.063Z,95227.91
2019-03-09T04:38:31.962Z,95224.33
2019-03-09T04:41:05.703Z,95224.43
2019-03-09T04:43:38.421Z,95225.55
2019-03-09T04:46:11.281Z,95227.77
2019-03-09T04:48:44.187Z,95232.43
2019-03-09T04:51:17.041Z,95238.55
2019-03-09T04:53:49.995Z,95240.23
2019-03-09T04:56:23.276Z,95236.38
2019-03-09T04:58:56.790Z,95245.30
2019-03-09T05:01:29.484Z,95243.52
2019-03-09T05:04:38.165Z,95243.56
2019-03-09T05:07:11.977Z,95245.17
2019-03-09T05:10:23.149Z,95243.55
2019-03-09T05:13:04.176Z,95246.13
2019-03-09T05:15:37.091Z,95256.30
2019-03-09T05:18:10.331Z,95258.37
2019-03-09T05:20:43.085Z,95262.23
2019-03-09T05:23:15.974Z,95264.45
2019-03-09T05:25:49.938Z,95266.06
2019-03-09T05:28:22.701Z,95272.97
2019-03-09T05:30:55.567Z,95274.49
2019-03-09T05:33:28.493Z,95278.67
2019-03-09T05:36:01.613Z,95274.19
2019-03-09T05:38:34.410Z,95281.08
2019-03-09T05:41:07.714Z,95284.52
2019-03-09T05:43:42.104Z,95287.46
2019-03-09T05:46:15.520Z,95292.73
2019-03-09T05:48:55.847Z,95289.11
2019-03-09T05:51:29.406Z,95291.37
2019-03-09T05:54:02.278Z,95292.33
2019-03-09T05:56:35.171Z,95295.73
2019-03-09T05:59:08.724Z,95300.05
2019-03-09T06:01:42.473Z,95296.33
2019-03-09T06:04:17.735Z,95304.59
2019-03-09T06:06:51.053Z,95302.86
2019-03-09T06:09:24.585Z,95305.25
2019-03-09T06:11:57.746Z,95303.57
2019-03-09T06:14:30.867Z,95305.23
2019-03-09T06:17:03.943Z,95303.73
2019-03-09T06:19:37.149Z,95308.73
2019-03-09T06:22:11.135Z,95307.09
2019-03-09T06:24:44.337Z,95309.78
2019-03-09T06:27:17.257Z,95312.84
2019-03-09T06:29:50.301Z,95316.62
2019-03-09T06:33:16.665Z,95313.81
2019-03-09T06:35:59.155Z,95318.85
2019-03-09T06:39:27.347Z,95319.09
2019-03-09T06:42:46.221Z,95315.60
2019-03-09T06:45:20.912Z,95310.28
2019-03-09T06:47:53.970Z,95310.17
2019-03-09T06:50:26.927Z,95311.86
2019-03-09T06:53:03.100Z,95307.55
2019-03-09T06:55:36.570Z,95311.23
2019-03-09T06:58:09.724Z,95308.83
2019-03-09T07:00:44.691Z,95304.06
2019-03-09T07:03:17.770Z,95307.03
2019-03-09T07:05:50.700Z,95308.27
2019-03-09T07:08:24.022Z,95311.39
2019-03-09T07:10:58.379Z,95310.66
2019-03-09T07:13:32.370Z,95306.17
2019-03-09T07:16:05.729Z,95304.88
2019-03-09T07:18:42.257Z,95304.20
2019-03-09T07:21:17.198Z,95307.75
2019-03-09T07:23:50.501Z,95297.53
2019-03-09T07:26:23.826Z,95298.59
2019-03-09T07:28:57.350Z,95286.21
2019-03-09T07:31:30.454Z,95291.45
2019-03-09T07:34:25.648Z,95287.73
2019-03-09T07:36:58.925Z,95283.40
2019-03-09T07:39:32.509Z,95288.09
2019-03-09T07:42:06.001Z,95288.11
2019-03-09T07:44:39.160Z,95285.63
2019-03-09T07:47:13.178Z,95279.56
2019-03-09T07:49:46.459Z,95273.94
2019-03-09T07:52:37.692Z,95280.73
2019-03-09T07:55:14.533Z,95278.73
2019-03-09T07:57:48.062Z,95280.23
2019-03-09T08:00:22.408Z,95275.70
2019-03-09T08:02:56.604Z,95274.66
2019-03-09T08:05:29.855Z,95280.12
2019-03-09T08:08:04.037Z,95267.31
2019-03-09T08:10:37.369Z,95266.41
2019-03-09T08:13:10.835Z,95261.11
2019-03-09T08:15:44.561Z,95262.23
2019-03-09T08:18:18.007Z,95265.80
2019-03-09T08:20:51.224Z,95262.06
2019-03-09T08:23:24.896Z,95259.77
2019-03-09T08:26:32.355Z,95266.59
2019-03-09T08:29:06.381Z,95264.20
2019-03-09T08:31:42.455Z,95262.78
2019-03-09T08:34:14.886Z,95257.42
2019-03-09T08:36:47.153Z,95255.33
2019-03-09T08:39:19.455Z,95251.20
2019-03-09T08:41:51.965Z,95251.21
2019-03-09T08:44:24.313Z,95251.17
2019-03-09T08:46:56.725Z,95244.39
2019-03-09T08:49:29.157Z,95236.17
2019-03-09T08:52:01.455Z,95237.33
2019-03-09T08:54:33.796Z,95236.61
2019-03-09T08:57:06.173Z,95240.25
2019-03-09T08:59:38.421Z,95235.67
2019-03-09T09:02:10.808Z,95232.42
2019-03-09T09:04:43.229Z,95230.29
2019-03-09T09:07:15.645Z,95232.83
2019-03-09T09:09:48.182Z,95221.79
2019-03-09T09:12:20.676Z,95227.70
2019-03-09T09:14:52.995Z,95220.73
2019-03-09T09:17:25.449Z,95219.66
2019-03-09T09:19:57.700Z,95220.59
2019-03-09T09:22:30.198Z,95218.20
2019-03-09T09:25:02.709Z,95227.38
2019-03-09T09:27:35.272Z,95224.91
2019-03-09T09:30:11.048Z,95221.28
2019-03-09T09:32:43.547Z,95223.09
2019-03-09T09:35:16.578Z,95217.55
2019-03-09T09:37:49.314Z,95221.00
2019-03-09T09:40:23.063Z,95221.70
2019-03-09T09:42:55.781Z,95211.41
2019-03-09T09:45:28.167Z,95214.37
2019-03-09T09:48:00.488Z,95211.17
2019-03-09T09:50:32.944Z,95208.91
2019-03-09T09:53:05.214Z,95203.12
2019-03-09T09:55:37.802Z,95208.23
2019-03-09T09:58:10.503Z,95198.66
2019-03-09T10:00:42.864Z,95186.43
2019-03-09T10:03:15.413Z,95181.56
2019-03-09T10:05:47.989Z,95183.01
2019-03-09T10:08:20.397Z,95176.59
2019-03-09T10:10:52.775Z,95171.83
2019-03-09T10:13:24.982Z,95167.55
2019-03-09T10:15:57.480Z,95174.39
2019-03-09T10:18:29.979Z,95178.35
2019-03-09T10:21:02.538Z,95172.30
2019-03-09T10:23:34.841Z,95170.27
2019-03-09T10:26:07.356Z,95164.91
2019-03-09T10:28:39.892Z,95159.16
2019-03-09T10:31:12.339Z,95154.09
2019-03-09T10:33:44.682Z,95146.61
2019-03-09T10:36:16.942Z,95141.48
2019-03-09T10:38:49.252Z,95143.59
2019-03-09T10:41:21.935Z,95137.67
2019-03-09T10:43:54.364Z,95126.41
2019-03-09T10:46:26.932Z,95131.05
2019-03-09T10:48:59.603Z,95122.80
2019-03-09T10:51:32.334Z,95116.63
2019-03-09T10:54:04.737Z,95117.51
2019-03-09T10:56:37.154Z,95112.27
2019-03-09T10:59:09.385Z,95101.89
2019-03-09T11:01:41.715Z,95095.16
2019-03-09T11:04:14.129Z,95089.16
2019-03-09T11:06:46.574Z,95085.02
2019-03-09T11:09:18.976Z,95072.06
2019-03-09T11:11:51.179Z,95061.69
2019-03-09T11:14:23.390Z,95057.62
2019-03-09T11:16:55.627Z,95063.16
2019-03-09T11:19:28.298Z,95065.80
2019-03-09T11:22:00.561Z,95048.48
2019-03-09T11:24:33.096Z,95049.63
2019-03-09T11:27:05.632Z,95041.72
2019-03-09T11:29:38.125Z,95040.48
2019-03-09T11:32:10.415Z,95039.61
2019-03-09T11:34:42.763Z,95029.55
2019-03-09T11:37:15.106Z,95024.87
2019-03-09T11:39:47.124Z,95008.57
2019-03-09T11:42:19.722Z,95013.86
2019-03-09T11:44:52.182Z,95013.36
2019-03-09T11:47:24.590Z,95008.24
2019-03-09T11:49:56.822Z,94998.61
2019-03-09T11:52:29.298Z,94995.94
2019-03-09T11:55:02.123Z,94991.63
2019-03-09T11:57:34.333Z,94988.42
2019-03-09T12:00:08.561Z,94987.88
2019-03-09T12:02:40.722Z,94987.36
2019-03-09T12:05:14.270Z,94988.11
2019-03-09T12:07:47.021Z,94985.72
2019-03-09T12:10:19.423Z,94977.61
2019-03-09T12:12:51.749Z,94976.48
2019-03-09T12:15:24.032Z,94971.37
2019-03-09T12:17:56.253Z,94974.78
2019-03-09T12:20:30.002Z,94971.29
2019-03-09T12:23:18.824Z,94963.76
2019-03-09T12:25:51.384Z,94958.77
2019-03-09T12:28:23.950Z,94960.27
2019-03-09T12:30:56.345Z,94963.75
2019-03-09T12:33:28.724Z,94958.41
2019-03-09T12:36:01.115Z,94955.66
2019-03-09T12:38:33.637Z,94951.52
2019-03-09T12:41:06.000Z,94954.38
2019-03-09T12:43:38.655Z,94948.59
2019-03-09T12:46:10.864Z,94950.83
2019-03-09T12:48:43.202Z,94949.22
2019-03-09T12:51:15.640Z,94952.98
2019-03-09T12:53:48.012Z,94951.17
2019-03-09T12:56:20.610Z,94945.88
2019-03-09T12:58:52.950Z,94945.86
2019-03-09T13:01:25.425Z,94944.25
2019-03-09T13:03:57.993Z,94938.27
2019-03-09T13:06:30.586Z,94935.20
2019-03-09T13:09:03.055Z,94936.66
2019-03-09T13:11:35.811Z,94933.23
2019-03-09T13:14:08.404Z,94932.07
2019-03-09T13:16:40.760Z,94920.81
2019-03-09T13:19:13.142Z,94922.67
2019-03-09T13:21:45.587Z,94918.07
2019-03-09T13:24:18.146Z,94911.30
2019-03-09T13:26:50.519Z,94914.04
2019-03-09T13:29:22.719Z,94908.59
2019-03-09T13:31:55.114Z,94905.08
2019-03-09T13:34:27.229Z,94902.47
2019-03-09T13:36:59.617Z,94905.96
2019-03-09T13:39:32.999Z,94904.41
2019-03-09T13:42:05.457Z,94894.16
2019-03-09T13:44:37.645Z,94885.64
2019-03-09T13:47:09.883Z,94885.30
2019-03-09T13:49:42.258Z,94875.53
2019-03-09T13:52:14.787Z,94872.38
2019-03-09T13:54:47.296Z,94875.66
2019-03-09T13:57:19.754Z,94868.78
2019-03-09T13:59:52.041Z,94869.52
2019-03-09T14:02:24.378Z,94866.55
2019-03-09T14:04:56.612Z,94861.95
2019-03-09T14:07:29.069Z,94859.49
2019-03-09T14:10:01.601Z,94860.38
2019-03-09T14:12:34.065Z,94855.19
2019-03-09T14:15:07.110Z,94866.19
2019-03-09T14:17:39.539Z,94859.07
2019-03-09T14:20:13.566Z,94859.97
2019-03-09T14:22:46.121Z,94853.75
2019-03-09T14:25:18.663Z,94850.97
2019-03-09T14:27:50.910Z,94848.52
2019-03-09T14:30:23.483Z,94846.48
2019-03-09T14:32:55.875Z,94846.80
2019-03-09T14:35:28.142Z,94838.44
2019-03-09T14:38:00.560Z,94835.19
2019-03-09T14:40:32.872Z,94831.92
2019-03-09T14:43:05.460Z,94830.95
2019-03-09T14:45:37.895Z,94830.77
2019-03-09T14:48:10.288Z,94835.13
2019-03-09T14:50:42.887Z,94830.42
2019-03-09T14:53:15.116Z,94831.44
2019-03-09T14:55:47.599Z,94822.28
2019-03-09T14:58:19.905Z,94814.62
2019-03-09T15:00:53.001Z,94815.50
2019-03-09T15:03:25.291Z,94812.94
2019-03-09T15:05:57.816Z,94814.44
2019-03-09T15:08:30.353Z,94808.73
2019-03-09T15:11:02.792Z,94816.20
2019-03-09T15:13:35.172Z,94807.30
2019-03-09T15:16:08.224Z,94811.46
2019-03-09T15:18:40.643Z,94814.22
2019-03-09T15:21:13.272Z,94810.14
2019-03-09T15:23:46.071Z,94814.34
2019-03-09T15:26:18.541Z,94818.69
2019-03-09T15:28:51.039Z,94812.02
2019-03-09T15:31:23.555Z,94811.85
2019-03-09T15:33:56.204Z,94800.12
2019-03-09T15:36:28.448Z,94805.39
2019-03-09T15:39:01.187Z,94806.11
2019-03-09T15:41:33.655Z,94808.71
2019-03-09T15:44:06.755Z,94810.47
2019-03-09T15:46:39.211Z,94809.87
2019-03-09T15:49:11.643Z,94808.91
2019-03-09T15:51:43.945Z,94800.35
2019-03-09T15:54:16.643Z,94810.25
2019-03-09T15:56:49.205Z,94812.91
2019-03-09T15:59:21.851Z,94820.77
2019-03-09T16:01:54.571Z,94829.05
2019-03-09T16:04:27.169Z,94825.20
2019-03-09T16:06:59.736Z,94819.98
2019-03-09T16:09:32.225Z,94820.08
2019-03-09T16:12:05.183Z,94827.38
2019-03-09T16:14:38.033Z,94829.07
2019-03-09T16:17:10.762Z,94825.34
2019-03-09T16:19:43.653Z,94829.34
2019-03-09T16:22:16.098Z,94827.84
2019-03-09T16:24:48.567Z,94824.17
2019-03-09T16:27:21.111Z,94828.38
2019-03-09T16:29:53.679Z,94826.39
2019-03-09T16:32:26.096Z,94826.44
2019-03-09T16:35:00.699Z,94831.19
2019-03-09T16:37:32.697Z,94828.88
2019-03-09T16:40:05.848Z,94834.50
2019-03-09T16:42:38.330Z,94838.66
2019-03-09T16:45:11.298Z,94839.88
2019-03-09T16:47:43.677Z,94840.61
2019-03-09T16:50:16.721Z,94843.52
2019-03-09T16:52:49.156Z,94847.62
2019-03-09T16:55:21.880Z,94854.09
2019-03-09T16:57:54.548Z,94854.50
2019-03-09T17:00:28.489Z,94858.95
2019-03-09T17:03:01.096Z,94855.28
2019-03-09T17:05:33.534Z,94866.17
2019-03-09T17:08:06.007Z,94866.01
2019-03-09T17:10:38.673Z,94874.84
2019-03-09T17:13:30.645Z,94878.79
2019-03-09T17:16:03.862Z,94894.17
2019-03-09T17:18:38.976Z,94929.90
2019-03-09T17:21:11.919Z,94938.91
2019-03-09T17:23:46.366Z,94950.57
2019-03-09T17:26:19.737Z,94952.87
2019-03-09T17:28:53.039Z,94960.39
2019-03-09T17:31:26.023Z,94971.13
2019-03-09T17:34:03.012Z,94970.75
2019-03-09T17:36:36.910Z,94968.23
2019-03-09T17:39:12.949Z,94966.90
2019-03-09T17:41:46.344Z,94963.09
2019-03-09T17:44:20.523Z,94971.72
2019-03-09T17:46:54.100Z,94975.71
2019-03-09T17:49:27.976Z,94984.95
2019-03-09T17:52:01.228Z,94982.20
2019-03-09T17:54:35.986Z,94988.63
2019-03-09T17:57:31.073Z,94979.90
2019-03-09T18:00:05.117Z,94976.47
2019-03-09T18:02:38.891Z,94980.13
2019-03-09T18:05:12.934Z,94981.77
2019-03-09T18:07:48.475Z,94981.97
2019-03-09T18:10:41.771Z,94980.44
2019-03-09T18:13:15.007Z,94982.16
2019-03-09T18:15:48.207Z,94984.83
2019-03-09T18:18:21.220Z,94984.44
2019-03-09T18:20:55.060Z,94989.67
2019-03-09T18:23:28.913Z,94985.75
2019-03-09T18:26:02.499Z,94980.72
2019-03-09T18:28:35.989Z,94988.54
2019-03-09T18:31:10.876Z,94991.34
2019-03-09T18:33:44.992Z,94984.98
2019-03-09T18:36:18.347Z,94976.94
2019-03-09T18:38:51.421Z,94976.91
2019-03-09T18:41:25.114Z,94975.45
2019-03-09T18:43:58.571Z,94974.30
2019-03-09T18:46:33.522Z,94975.66
2019-03-09T18:49:06.895Z,94979.39
2019-03-09T18:51:40.130Z,94976.33
2019-03-09T18:54:13.325Z,94977.31
2019-03-09T18:56:46.090Z,94983.09
2019-03-09T18:59:19.598Z,94987.81
2019-03-09T19:01:53.157Z,94986.91
2019-03-09T19:04:26.240Z,94989.58
2019-03-09T19:06:59.564Z,94991.25
2019-03-09T19:09:32.915Z,94995.09
2019-03-09T19:12:05.879Z,94990.41
2019-03-09T19:14:41.429Z,94993.75
2019-03-09T19:17:14.397Z,94986.77
2019-03-09T19:19:47.718Z,94994.77
2019-03-09T19:22:21.255Z,94986.25
2019-03-09T19:24:54.006Z,94990.20
2019-03-09T19:27:27.188Z,94985.78
2019-03-09T19:30:00.434Z,94989.56
2019-03-09T19:32:33.660Z,94991.27
2019-03-09T19:35:07.748Z,94990.33
2019-03-09T19:37:52.023Z,94994.75
2019-03-09T19:40:28.453Z,94996.39
2019-03-09T19:43:01.973Z,95001.23
2019-03-09T19:45:35.478Z,95004.56
2019-03-09T19:48:08.732Z,95002.18
2019-03-09T19:50:42.156Z,95003.64
2019-03-09T19:53:15.094Z,94999.59
2019-03-09T19:55:48.286Z,95002.26
2019-03-09T19:58:21.785Z,94997.99
2019-03-09T20:00:55.148Z,94998.06
2019-03-09T20:03:28.542Z,94995.20
2019-03-09T20:06:01.968Z,95005.38
2019-03-09T20:08:35.575Z,95007.80
2019-03-09T20:11:09.174Z,95009.02
2019-03-09T20:13:42.347Z,95006.61
2019-03-09T20:16:15.376Z,95001.13
2019-03-09T20:18:48.814Z,94999.63
2019-03-09T20:21:21.830Z,95001.06
2019-03-09T20:23:55.131Z,95001.22
2019-03-09T20:26:28.505Z,94998.48
2019-03-09T20:29:02.193Z,95000.08
2019-03-09T20:31:35.830Z,95000.53
2019-03-09T20:34:09.098Z,95001.53
2019-03-09T20:36:42.908Z,95005.31
2019-03-09T20:39:15.872Z,95001.61
2019-03-09T20:41:48.766Z,94999.44
2019-03-09T20:44:21.908Z,94998.49
2019-03-09T20:46:55.384Z,95000.74
2019-03-09T20:49:28.670Z,94997.87
2019-03-09T20:52:01.650Z,94995.23
2019-03-09T20:54:34.900Z,95005.02
2019-03-09T20:57:08.220Z,94994.31
2019-03-09T20:59:41.329Z,94990.49
2019-03-09T21:02:14.448Z,94994.20
2019-03-09T21:04:47.388Z,94989.24
2019-03-09T21:07:20.615Z,94989.02
2019-03-09T21:09:53.587Z,94986.17
2019-03-09T21:12:26.936Z,94986.44
2019-03-09T21:14:59.991Z,94988.80
2019-03-09T21:17:33.287Z,94985.70
2019-03-09T21:20:06.681Z,94983.17
2019-03-09T21:22:39.699Z,94981.81
2019-03-09T21:25:12.676Z,94983.09
2019-03-09T21:27:45.879Z,94979.43
2019-03-09T21:30:19.495Z,94975.44
2019-03-09T21:32:52.352Z,94971.68
2019-03-09T21:35:25.409Z,94971.80
2019-03-09T21:37:58.772Z,94967.66
2019-03-09T21:40:31.704Z,94970.17
2019-03-09T21:43:17.617Z,94961.34
2019-03-09T21:45:50.502Z,94958.66
2019-03-09T21:48:23.381Z,94959.14
2019-03-09T21:50:56.649Z,94957.09
2019-03-09T21:53:29.451Z,94954.75
2019-03-09T21:56:02.487Z,94953.97
2019-03-09T21:58:35.881Z,94957.30
2019-03-09T22:01:09.015Z,94954.07
2019-03-09T22:06:19.798Z,94959.34
2019-03-09T22:08:52.529Z,94953.55
2019-03-09T22:11:24.918Z,94950.02
2019-03-09T22:13:57.051Z,94952.73
2019-03-09T22:16:29.536Z,94949.89
2019-03-09T22:19:01.720Z,94949.36
2019-03-09T22:21:33.986Z,94948.67
2019-03-09T22:24:06.132Z,94944.35
2019-03-09T22:26:38.254Z,94940.50
2019-03-09T22:29:10.560Z,94938.61
2019-03-09T22:31:42.971Z,94944.25
2019-03-09T22:34:15.198Z,94941.09
2019-03-09T22:36:47.795Z,94938.58
2019-03-09T22:39:20.273Z,94940.34
2019-03-09T22:41:52.680Z,94945.20
2019-03-09T22:44:24.965Z,94944.05
2019-03-09T22:46:57.182Z,94947.44
2019-03-09T22:49:29.265Z,94949.66
2019-03-09T22:52:01.411Z,94950.36
2019-03-09T22:54:33.723Z,94952.56
2019-03-09T22:57:06.591Z,94957.73
2019-03-09T22:59:38.879Z,94959.04
2019-03-09T23:02:11.478Z,94965.44
2019-03-09T23:04:43.771Z,94967.30
2019-03-09T23:07:15.914Z,94962.83
2019-03-09T23:09:47.943Z,94960.45
2019-03-09T23:12:20.089Z,94964.86
2019-03-09T23:14:52.265Z,94959.41
2019-03-09T23:17:24.501Z,94949.45
2019-03-09T23:19:56.603Z,94947.28
2019-03-09T23:22:28.781Z,94945.32
2019-03-09T23:25:00.895Z,94943.69
2019-03-09T23:27:33.236Z,94947.95
2019-03-09T23:30:07.427Z,94942.87
2019-03-09T23:32:39.830Z,94933.56
2019-03-09T23:35:12.030Z,94923.30
2019-03-09T23:37:44.414Z,94925.67
2019-03-09T23:40:17.595Z,94934.63
2019-03-09T23:42:49.873Z,94931.98
2019-03-09T23:45:22.157Z,94937.98
2019-03-09T23:47:54.537Z,94941.78
2019-03-09T23:50:26.731Z,94941.77
2019-03-09T23:52:59.106Z,94946.52
2019-03-09T23:55:31.263Z,94950.84
2019-03-09T23:58:03.530Z,94945.39
